Time;durP1;ratioP1;P1;durP2;ratioP2;P2;SDS_P1;SDS_P2;PMS_P1;PMS_P2;Temp;Humidity;BMP_temperature;BMP_pressure;BME280_temperature;BME280_humidity;BME280_pressure;Samples;Min_cycle;Max_cycle;Signal;HPM_P1;HPM_P2
2021/12/29 00:02:58;;;;;;;3.92;2.95;;;;;;;3.26;100.00;99439.97;6248597;28;20045;-75
2021/12/29 00:05:59;;;;;;;7.28;1.70;;;;;;;3.42;100.00;99448.78;6247898;28;20060;-75
2021/12/29 00:09:01;;;;;;;3.33;2.13;;;;;;;3.59;100.00;99454.94;6248158;28;20053;-75
2021/12/29 00:12:07;;;;;;;8.13;2.55;;;;;;;3.70;100.00;99455.31;6247691;28;20140;-75
2021/12/29 00:15:10;;;;;;;3.60;1.70;;;;;;;3.78;100.00;99463.59;6245801;28;20060;-75
2021/12/29 00:18:11;;;;;;;5.32;2.10;;;;;;;3.81;100.00;99473.81;6247682;28;20053;-75
2021/12/29 00:21:14;;;;;;;4.43;2.38;;;;;;;3.81;100.00;99468.63;6247557;28;20488;-75
2021/12/29 00:24:15;;;;;;;2.70;1.65;;;;;;;3.76;100.00;99473.19;6239394;28;20416;-75
2021/12/29 00:27:18;;;;;;;3.15;1.85;;;;;;;3.73;100.00;99484.59;6223195;28;20060;-75
2021/12/29 00:30:19;;;;;;;9.05;2.90;;;;;;;3.78;100.00;99479.19;6222863;28;20493;-75
2021/12/29 00:33:20;;;;;;;2.60;1.75;;;;;;;3.76;100.00;99479.22;6224264;28;20046;-75
2021/12/29 00:36:22;;;;;;;3.45;2.30;;;;;;;3.64;100.00;99474.63;6244742;28;20052;-75
2021/12/29 00:39:23;;;;;;;5.80;3.15;;;;;;;3.60;100.00;99485.22;6247026;28;20072;-75
2021/12/29 00:42:26;;;;;;;5.03;2.00;;;;;;;3.50;100.00;99488.22;6247293;28;20045;-75
2021/12/29 00:45:31;;;;;;;2.70;1.55;;;;;;;3.45;100.00;99508.38;6247281;28;20045;-75
2021/12/29 00:48:37;;;;;;;5.03;2.22;;;;;;;3.45;100.00;99497.97;6247578;28;20053;-75
2021/12/29 00:51:39;;;;;;;3.40;1.90;;;;;;;3.41;100.00;99513.75;6246803;28;20180;-75
2021/12/29 00:54:42;;;;;;;3.22;1.83;;;;;;;3.39;100.00;99513.81;6245227;28;20049;-75
2021/12/29 00:57:46;;;;;;;3.35;2.20;;;;;;;3.39;100.00;99518.16;6241289;28;20053;-75
2021/12/29 01:00:48;;;;;;;3.55;2.20;;;;;;;3.40;100.00;99514.66;6246822;28;20049;-75
2021/12/29 01:03:49;;;;;;;8.73;2.55;;;;;;;3.42;100.00;99521.47;6247182;28;20054;-76
2021/12/29 01:06:50;;;;;;;8.10;3.10;;;;;;;3.50;100.00;99531.53;6247205;28;20056;-75
2021/12/29 01:09:52;;;;;;;5.57;2.33;;;;;;;3.53;100.00;99531.38;6246564;28;20060;-75
2021/12/29 01:12:58;;;;;;;6.57;2.63;;;;;;;3.56;100.00;99534.69;6247005;28;20041;-75
2021/12/29 01:16:16;;;;;;;5.32;2.75;;;;;;;3.53;100.00;99542.63;6246850;28;20184;-75
2021/12/29 01:19:20;;;;;;;8.07;3.40;;;;;;;3.54;100.00;99561.63;6246722;28;20050;-75
2021/12/29 01:22:22;;;;;;;7.20;2.47;;;;;;;3.58;100.00;99565.78;6246372;28;20307;-75
2021/12/29 01:25:24;;;;;;;5.10;2.78;;;;;;;3.62;100.00;99561.31;6238238;28;20053;-75
2021/12/29 01:28:26;;;;;;;6.60;2.80;;;;;;;3.70;100.00;99573.06;6230492;28;20057;-76
2021/12/29 01:31:27;;;;;;;5.60;2.70;;;;;;;3.72;100.00;99584.22;6241808;28;20501;-74
2021/12/29 01:34:29;;;;;;;7.15;2.92;;;;;;;3.74;100.00;99584.16;6244452;28;20056;-75
2021/12/29 01:37:30;;;;;;;7.43;3.25;;;;;;;3.75;100.00;99591.03;6246213;28;20053;-75
2021/12/29 01:40:32;;;;;;;6.32;3.17;;;;;;;3.74;100.00;99595.41;6246397;28;20049;-75
2021/12/29 01:43:35;;;;;;;7.07;3.80;;;;;;;3.75;100.00;99597.06;6239622;28;20045;-75
2021/12/29 01:46:37;;;;;;;8.73;2.63;;;;;;;3.75;100.00;99599.66;6246866;28;20053;-75
2021/12/29 01:49:41;;;;;;;6.28;3.20;;;;;;;3.75;100.00;99597.06;6251322;28;20046;-75
2021/12/29 01:52:50;;;;;;;7.57;3.42;;;;;;;3.73;100.00;99604.09;6246177;28;20075;-75
2021/12/29 01:55:52;;;;;;;7.53;3.28;;;;;;;3.71;100.00;99605.06;6243507;28;20060;-75
2021/12/29 01:58:55;;;;;;;7.30;3.53;;;;;;;3.71;100.00;99610.28;6248832;28;20056;-75
2021/12/29 02:01:56;;;;;;;8.05;3.50;;;;;;;3.70;100.00;99612.03;6248766;28;20041;-75
2021/12/29 02:04:58;;;;;;;9.50;4.35;;;;;;;3.73;100.00;99626.66;6251088;28;20060;-75
2021/12/29 02:07:59;;;;;;;8.85;3.58;;;;;;;3.76;100.00;99631.69;6250596;28;20053;-75
2021/12/29 02:11:00;;;;;;;9.88;4.43;;;;;;;3.79;100.00;99640.22;6247422;28;20049;-75
2021/12/29 02:14:06;;;;;;;14.15;4.40;;;;;;;3.80;100.00;99647.09;6250543;28;20053;-75
2021/12/29 02:17:08;;;;;;;10.00;4.53;;;;;;;3.83;100.00;99646.13;6239741;28;20054;-76
2021/12/29 02:20:12;;;;;;;13.07;4.32;;;;;;;3.84;100.00;99644.38;6248608;28;20072;-75
2021/12/29 02:23:18;;;;;;;13.90;4.75;;;;;;;3.87;100.00;99660.69;6250720;28;20126;-75
2021/12/29 02:26:21;;;;;;;12.02;4.00;;;;;;;3.87;100.00;99665.88;6248295;28;20045;-75
2021/12/29 02:29:24;;;;;;;7.25;3.70;;;;;;;3.86;100.00;99682.38;6250231;28;20060;-75
2021/12/29 02:32:25;;;;;;;11.45;4.60;;;;;;;3.91;100.00;99688.22;6250318;28;20052;-75
2021/12/29 02:35:28;;;;;;;6.95;3.90;;;;;;;3.93;100.00;99685.53;6250249;28;20049;-76
2021/12/29 02:38:33;;;;;;;10.75;4.70;;;;;;;3.92;100.00;99689.06;6250647;28;20188;-76
2021/12/29 02:41:35;;;;;;;12.75;5.47;;;;;;;3.92;100.00;99702.06;6249794;28;20091;-75
2021/12/29 02:44:40;;;;;;;9.23;4.40;;;;;;;3.94;100.00;99715.81;6250312;28;20049;-75
2021/12/29 02:47:43;;;;;;;6.90;3.55;;;;;;;3.96;100.00;99701.88;6249993;28;20061;-75
2021/12/29 02:50:46;;;;;;;10.48;4.88;;;;;;;4.00;100.00;99702.56;6249971;28;20045;-76
2021/12/29 02:53:47;;;;;;;12.25;4.82;;;;;;;3.97;100.00;99705.31;6250179;28;20056;-75
2021/12/29 02:56:52;;;;;;;9.00;3.83;;;;;;;3.96;100.00;99698.41;6247574;28;20057;-75
2021/12/29 02:59:53;;;;;;;8.55;3.53;;;;;;;3.93;100.00;99699.38;6249206;28;20076;-75
2021/12/29 03:02:54;;;;;;;12.63;4.95;;;;;;;3.95;100.00;99697.59;6249548;28;20042;-75
2021/12/29 03:05:58;;;;;;;8.88;3.45;;;;;;;3.96;100.00;99708.81;6249766;28;20053;-75
2021/12/29 03:08:59;;;;;;;10.73;4.30;;;;;;;3.99;100.00;99713.88;6249470;28;20497;-76
2021/12/29 03:12:00;;;;;;;13.10;5.13;;;;;;;4.01;100.00;99710.31;6249185;28;20041;-75
2021/12/29 03:15:02;;;;;;;12.98;4.72;;;;;;;4.02;100.00;99719.78;6249353;28;20053;-75
2021/12/29 03:18:04;;;;;;;9.52;4.15;;;;;;;4.01;100.00;99725.91;6249317;28;20493;-75
2021/12/29 03:21:07;;;;;;;10.10;5.25;;;;;;;4.04;100.00;99722.31;6249188;28;20053;-76
2021/12/29 03:24:09;;;;;;;9.30;4.90;;;;;;;4.05;100.00;99721.41;6249091;28;20053;-76
2021/12/29 03:27:10;;;;;;;12.52;4.53;;;;;;;4.06;100.00;99726.53;6229513;28;20049;-75
2021/12/29 03:30:12;;;;;;;10.02;4.93;;;;;;;4.04;100.00;99724.91;6243411;28;20093;-75
2021/12/29 03:33:14;;;;;;;9.73;4.93;;;;;;;4.06;100.00;99736.09;6248041;28;20420;-75
2021/12/29 03:36:18;;;;;;;10.02;5.38;;;;;;;4.09;100.00;99743.78;6248065;28;20050;-75
2021/12/29 03:39:23;;;;;;;10.85;4.95;;;;;;;4.12;100.00;99745.38;6248704;28;20054;-75
2021/12/29 03:42:24;;;;;;;28.75;6.40;;;;;;;4.15;100.00;99747.88;6248455;28;20045;-75
2021/12/29 03:45:26;;;;;;;12.10;5.68;;;;;;;4.16;100.00;99760.78;6248761;28;20049;-75
2021/12/29 03:48:28;;;;;;;14.05;6.03;;;;;;;4.16;100.00;99765.97;6248377;28;20057;-75
2021/12/29 03:51:31;;;;;;;17.60;6.60;;;;;;;4.18;100.00;99773.72;6248502;28;20057;-75
2021/12/29 03:54:32;;;;;;;12.70;5.72;;;;;;;4.14;100.00;99767.81;6246970;28;20054;-75
2021/12/29 03:57:34;;;;;;;19.73;6.40;;;;;;;4.13;100.00;99762.66;6248516;28;20060;-75
2021/12/29 04:00:36;;;;;;;15.20;5.32;;;;;;;4.14;100.00;99760.03;6248077;28;20045;-75
2021/12/29 04:03:37;;;;;;;13.05;5.82;;;;;;;4.16;100.00;99775.53;6248240;28;20054;-75
2021/12/29 04:06:40;;;;;;;15.82;5.97;;;;;;;4.17;100.00;99783.28;6248209;28;20056;-75
2021/12/29 04:09:41;;;;;;;16.30;6.38;;;;;;;4.17;100.00;99791.06;6246387;28;20532;-75
2021/12/29 04:12:43;;;;;;;15.82;6.30;;;;;;;4.17;100.00;99782.44;6241935;28;20393;-75
2021/12/29 04:15:45;;;;;;;16.98;5.47;;;;;;;4.17;100.00;99798.03;6247885;28;20045;-75
2021/12/29 04:19:06;;;;;;;10.98;5.13;;;;;;;4.15;100.00;99798.09;6248190;28;20060;-75
2021/12/29 04:22:09;;;;;;;14.45;5.57;;;;;;;4.17;100.00;99811.03;6247512;28;20045;-76
2021/12/29 04:25:10;;;;;;;17.13;6.03;;;;;;;4.16;100.00;99815.38;6246205;28;20681;-75
2021/12/29 04:28:15;;;;;;;13.60;5.25;;;;;;;4.18;100.00;99817.91;6247606;28;20046;-75
2021/12/29 04:31:16;;;;;;;10.20;4.50;;;;;;;4.18;100.00;99815.31;6247610;28;20464;-75
2021/12/29 04:34:18;;;;;;;12.55;4.57;;;;;;;4.17;100.00;99824.88;6247793;28;20041;-75
2021/12/29 04:37:20;;;;;;;9.43;4.13;;;;;;;4.19;100.00;99827.44;6247757;28;20061;-75
2021/12/29 04:40:22;;;;;;;15.60;5.70;;;;;;;4.19;100.00;99833.47;6247124;28;20056;-75
2021/12/29 04:43:25;;;;;;;7.55;4.22;;;;;;;4.19;100.00;99833.47;6247368;28;20046;-75
2021/12/29 04:46:36;;;;;;;11.00;4.53;;;;;;;4.24;100.00;99843.69;6247369;28;20512;-75
2021/12/29 04:49:41;;;;;;;8.40;3.72;;;;;;;4.23;100.00;99849.78;6247395;28;20046;-75
2021/12/29 04:52:44;;;;;;;11.50;4.00;;;;;;;4.27;100.00;99856.53;6246103;28;20097;-75
2021/12/29 04:55:49;;;;;;;8.55;3.60;;;;;;;4.27;100.00;99873.00;6246848;28;20061;-75
2021/12/29 04:58:50;;;;;;;6.72;3.38;;;;;;;4.35;100.00;99875.28;6247105;28;20056;-75
2021/12/29 05:01:53;;;;;;;9.70;4.43;;;;;;;4.32;100.00;99875.41;6246800;28;20049;-76
2021/12/29 05:04:59;;;;;;;11.40;4.68;;;;;;;4.37;100.00;99877.81;6247191;28;20053;-75
2021/12/29 05:11:21;;;;;;;14.55;4.18;;;;;;;4.41;100.00;99892.41;6246710;28;20611;-75
2021/12/29 05:14:22;;;;;;;7.40;3.60;;;;;;;4.45;100.00;99888.72;6245297;28;20037;-76
2021/12/29 05:17:24;;;;;;;12.85;5.13;;;;;;;4.43;100.00;99888.81;6237281;28;20049;-75
2021/12/29 05:20:27;;;;;;;9.63;3.83;;;;;;;4.50;100.00;99898.06;6246247;28;20060;-75
2021/12/29 05:23:30;;;;;;;13.50;5.32;;;;;;;4.48;100.00;99889.47;6244574;28;20041;-75
2021/12/29 05:26:31;;;;;;;13.70;4.78;;;;;;;4.48;100.00;99896.41;6243021;28;20481;-75
2021/12/29 05:29:33;;;;;;;11.60;4.25;;;;;;;4.52;100.00;99896.22;6238000;28;20046;-75
2021/12/29 05:32:34;;;;;;;14.35;4.93;;;;;;;4.54;100.00;99899.63;6246138;28;20045;-75
2021/12/29 05:35:36;;;;;;;21.70;5.78;;;;;;;4.57;100.00;99907.28;6246468;28;20054;-75
2021/12/29 05:38:39;;;;;;;13.10;4.47;;;;;;;4.58;100.00;99903.75;6246675;28;20053;-75
2021/12/29 05:41:40;;;;;;;11.82;3.83;;;;;;;4.60;100.00;99910.69;6246315;28;20136;-75
2021/12/29 05:44:42;;;;;;;11.65;5.05;;;;;;;4.58;100.00;99914.16;6246090;28;20409;-76
2021/12/29 05:47:45;;;;;;;18.50;4.97;;;;;;;4.62;100.00;99914.91;6246180;28;20058;-75
2021/12/29 05:50:46;;;;;;;9.52;4.07;;;;;;;4.60;100.00;99918.50;6246346;28;20050;-75
2021/12/29 05:53:50;;;;;;;11.63;4.20;;;;;;;4.58;100.00;99918.53;6229906;28;20049;-75
2021/12/29 05:56:51;;;;;;;11.35;3.10;;;;;;;4.67;100.00;99919.91;6246090;28;20417;-75
2021/12/29 05:59:53;;;;;;;7.88;3.17;;;;;;;4.65;100.00;99922.59;6245497;28;20057;-75
2021/12/29 06:02:55;;;;;;;9.48;3.80;;;;;;;4.65;100.00;99921.75;6246263;28;20049;-75
2021/12/29 06:05:56;;;;;;;8.43;3.08;;;;;;;4.66;100.00;99929.47;6246107;28;20052;-75
2021/12/29 06:08:59;;;;;;;9.82;3.72;;;;;;;4.66;100.00;99929.47;6240854;28;20053;-75
2021/12/29 06:12:00;;;;;;;8.13;3.60;;;;;;;4.66;100.00;99929.47;6245764;28;20484;-75
2021/12/29 06:15:02;;;;;;;7.97;3.47;;;;;;;4.71;100.00;99937.94;6233797;28;20045;-75
2021/12/29 06:18:04;;;;;;;8.07;3.80;;;;;;;4.73;100.00;99956.94;6231571;28;20045;-75
2021/12/29 06:21:05;;;;;;;7.82;3.47;;;;;;;4.74;100.00;99944.78;6243230;28;20140;-75
2021/12/29 06:24:09;;;;;;;6.95;2.83;;;;;;;4.72;100.00;99956.97;6244201;28;20053;-75
2021/12/29 06:27:10;;;;;;;5.75;2.58;;;;;;;4.77;100.00;99974.13;6245203;28;20464;-75
2021/12/29 06:30:14;;;;;;;6.55;3.08;;;;;;;4.78;100.00;99974.97;6245609;28;20049;-75
2021/12/29 06:33:16;;;;;;;5.57;3.17;;;;;;;4.83;100.00;99981.66;6233850;28;20129;-75
2021/12/29 06:36:18;;;;;;;9.32;3.22;;;;;;;4.83;100.00;99993.84;6236222;28;20057;-75
2021/12/29 06:39:20;;;;;;;9.68;3.30;;;;;;;4.86;100.00;99996.31;6241526;28;20045;-75
2021/12/29 06:42:23;;;;;;;7.47;3.38;;;;;;;4.88;100.00;99991.03;6241568;28;20191;-75
2021/12/29 06:45:26;;;;;;;8.45;2.97;;;;;;;4.90;100.00;100010.03;6250207;28;20061;-75
2021/12/29 06:48:28;;;;;;;6.93;2.67;;;;;;;4.92;100.00;100018.66;6250337;28;20054;-75
2021/12/29 06:51:29;;;;;;;7.88;3.20;;;;;;;4.94;100.00;100017.66;6237911;28;20417;-75
2021/12/29 06:54:33;;;;;;;9.43;3.35;;;;;;;4.92;100.00;100023.84;6225251;28;20479;-75
2021/12/29 06:57:34;;;;;;;10.73;3.70;;;;;;;4.93;100.00;100033.34;6225243;28;20509;-75
2021/12/29 07:00:36;;;;;;;9.43;3.42;;;;;;;4.93;100.00;100033.34;6225378;28;20053;-75
2021/12/29 07:03:38;;;;;;;7.15;2.88;;;;;;;4.97;100.00;100046.16;6243428;28;20416;-75
2021/12/29 07:06:39;;;;;;;11.10;3.47;;;;;;;5.01;100.00;100047.75;6249686;28;20053;-76
2021/12/29 07:09:42;;;;;;;7.93;2.95;;;;;;;4.98;100.00;100054.81;6249809;28;20049;-75
2021/12/29 07:12:43;;;;;;;5.90;2.88;;;;;;;5.02;100.00;100072.88;6249308;28;20046;-75
2021/12/29 07:15:45;;;;;;;11.93;3.85;;;;;;;5.02;100.00;100069.41;6249344;28;20432;-75
2021/12/29 07:18:48;;;;;;;7.70;2.95;;;;;;;5.03;100.00;100068.50;6249567;28;20065;-76
2021/12/29 07:21:50;;;;;;;7.18;2.50;;;;;;;5.07;100.00;100070.06;6242777;28;20421;-75
2021/12/29 07:24:53;;;;;;;8.15;2.45;;;;;;;5.08;100.00;100083.00;6224641;28;20046;-75
2021/12/29 07:27:54;;;;;;;9.25;3.60;;;;;;;5.15;100.00;100085.38;6227566;28;20053;-75
2021/12/29 07:30:56;;;;;;;5.88;3.45;;;;;;;5.14;100.00;100094.13;6248632;28;20056;-76
2021/12/29 07:33:59;;;;;;;6.60;2.42;;;;;;;5.15;100.00;100090.59;6249041;28;20053;-75
2021/12/29 07:37:01;;;;;;;7.63;2.78;;;;;;;5.14;100.00;100089.75;6248648;28;20050;-76
2021/12/29 07:40:07;;;;;;;6.10;2.92;;;;;;;5.17;100.00;100105.22;6248714;28;20056;-76
2021/12/29 07:43:08;;;;;;;8.73;2.28;;;;;;;5.19;100.00;100113.84;6249167;28;20049;-75
2021/12/29 07:46:12;;;;;;;9.07;3.65;;;;;;;5.21;100.00;100130.25;6248209;28;20053;-75
2021/12/29 07:49:14;;;;;;;6.15;3.03;;;;;;;5.20;100.00;100145.94;6245217;28;20046;-75
2021/12/29 07:52:15;;;;;;;8.77;3.63;;;;;;;5.17;100.00;100146.91;6223636;28;20050;-75
2021/12/29 07:55:20;;;;;;;5.20;2.65;;;;;;;5.22;100.00;100147.59;6224176;28;20493;-75
2021/12/29 07:58:22;;;;;;;6.70;3.35;;;;;;;5.22;100.00;100138.91;6223858;28;20442;-76
2021/12/29 08:01:24;;;;;;;11.27;3.83;;;;;;;5.24;100.00;100134.50;6224087;28;20052;-75
2021/12/29 08:04:25;;;;;;;7.80;3.05;;;;;;;5.24;100.00;100143.16;6248083;28;20493;-75
2021/12/29 08:07:27;;;;;;;13.27;3.72;;;;;;;5.26;100.00;100154.34;6248384;28;20059;-76
2021/12/29 08:10:30;;;;;;;11.43;3.10;;;;;;;5.30;100.00;100158.53;6247460;28;20050;-75
2021/12/29 08:13:31;;;;;;;6.13;3.22;;;;;;;5.31;100.00;100164.56;6247144;28;20045;-76
2021/12/29 08:16:32;;;;;;;7.85;2.90;;;;;;;5.34;100.00;100161.84;6248074;28;20053;-76
2021/12/29 08:19:34;;;;;;;10.27;3.22;;;;;;;5.39;100.00;100172.09;6236015;28;20129;-76
2021/12/29 08:22:35;;;;;;;7.40;4.00;;;;;;;5.37;100.00;100166.94;6223257;28;20072;-75
2021/12/29 08:25:38;;;;;;;12.45;2.95;;;;;;;5.38;100.00;100163.41;6223150;28;20046;-75
2021/12/29 08:28:40;;;;;;;7.60;3.30;;;;;;;5.37;100.00;100164.34;6223166;28;20053;-75
2021/12/29 08:31:41;;;;;;;7.32;3.00;;;;;;;5.40;100.00;100173.78;6223068;28;20061;-76
2021/12/29 08:34:43;;;;;;;10.05;3.55;;;;;;;5.40;100.00;100176.38;6223252;28;20046;-76
2021/12/29 08:37:44;;;;;;;7.30;3.28;;;;;;;5.39;100.00;100172.94;6223021;28;20137;-76
2021/12/29 08:40:48;;;;;;;6.78;3.47;;;;;;;5.45;100.00;100184.84;6234395;28;20053;-76
2021/12/29 08:43:50;;;;;;;8.75;3.65;;;;;;;5.46;100.00;100183.97;6241190;28;20061;-75
2021/12/29 08:46:51;;;;;;;5.40;2.75;;;;;;;5.50;100.00;100183.78;6244693;28;20485;-76
2021/12/29 08:49:53;;;;;;;4.63;2.60;;;;;;;5.51;100.00;100187.22;6222716;28;20050;-76
2021/12/29 08:52:54;;;;;;;10.23;2.80;;;;;;;5.54;100.00;100180.13;6222571;28;20057;-76
2021/12/29 08:55:57;;;;;;;11.05;2.53;;;;;;;5.54;100.00;100177.53;6222576;28;20057;-75
2021/12/29 08:58:58;;;;;;;9.60;3.42;;;;;;;5.57;100.00;100179.13;6222344;28;20054;-75
2021/12/29 09:02:00;;;;;;;6.95;3.47;;;;;;;5.59;100.00;100187.75;6222388;28;20137;-75
2021/12/29 09:05:01;;;;;;;7.20;3.67;;;;;;;5.63;100.00;100194.50;6235992;28;20056;-75
2021/12/29 09:08:03;;;;;;;18.55;4.43;;;;;;;5.67;100.00;100211.72;6244402;28;20056;-74
2021/12/29 09:11:06;;;;;;;4.25;2.45;;;;;;;5.67;100.00;100213.47;6246589;28;20045;-75
2021/12/29 09:14:09;;;;;;;8.75;3.08;;;;;;;5.69;100.00;100196.03;6246990;28;20053;-75
2021/12/29 09:17:10;;;;;;;6.82;3.40;;;;;;;5.68;100.00;100207.34;6245027;28;20048;-75
2021/12/29 09:20:16;;;;;;;4.90;2.42;;;;;;;5.70;100.00;100206.38;6246485;28;20046;-75
2021/12/29 09:23:18;;;;;;;9.20;3.08;;;;;;;5.71;100.00;100215.91;6246634;28;20139;-75
2021/12/29 09:26:21;;;;;;;6.00;2.47;;;;;;;5.72;100.00;100227.16;6226970;28;20050;-74
2021/12/29 09:29:22;;;;;;;5.22;2.15;;;;;;;5.76;100.00;100215.69;6234758;28;20097;-75
2021/12/29 09:32:29;;;;;;;4.93;2.42;;;;;;;5.78;100.00;100226.94;6243238;28;20046;-75
2021/12/29 09:35:31;;;;;;;3.00;1.85;;;;;;;5.77;100.00;100223.47;6239588;28;20131;-75
2021/12/29 09:38:35;;;;;;;5.07;2.92;;;;;;;5.78;100.00;100233.00;6246333;28;20050;-75
2021/12/29 09:41:38;;;;;;;3.30;1.77;;;;;;;5.80;100.00;100232.91;6240510;28;20053;-75
2021/12/29 09:44:39;;;;;;;6.35;2.78;;;;;;;5.81;100.00;100221.56;6246287;28;20061;-75
2021/12/29 09:47:41;;;;;;;5.03;1.92;;;;;;;5.82;100.00;100221.53;6244865;28;20056;-75
2021/12/29 09:50:43;;;;;;;8.38;2.58;;;;;;;5.87;100.00;100229.16;6241547;28;20054;-75
2021/12/29 09:53:46;;;;;;;9.40;2.50;;;;;;;5.89;100.00;100244.72;6246226;28;20058;-75
2021/12/29 09:56:48;;;;;;;4.68;2.13;;;;;;;5.88;100.00;100249.09;6245938;28;20050;-75
2021/12/29 09:59:50;;;;;;;3.03;2.08;;;;;;;5.88;100.00;100243.88;6246296;28;20082;-75
2021/12/29 10:02:52;;;;;;;3.15;1.42;;;;;;;5.92;100.00;100258.53;6246565;28;20049;-76
2021/12/29 10:05:57;;;;;;;4.05;1.95;;;;;;;5.98;100.00;100267.84;6242824;28;20045;-75
2021/12/29 10:09:10;;;;;;;4.10;2.17;;;;;;;5.95;100.00;100261.00;6247053;28;20049;-75
2021/12/29 10:12:19;;;;;;;5.90;2.83;;;;;;;5.93;100.00;100249.78;6250764;28;20049;-75
2021/12/29 10:15:20;;;;;;;13.43;2.65;;;;;;;5.92;100.00;100253.31;6240400;28;20042;-75
2021/12/29 10:18:24;;;;;;;6.22;2.85;;;;;;;5.94;100.00;100263.66;6232372;28;20060;-75
2021/12/29 10:21:26;;;;;;;6.43;2.83;;;;;;;5.91;100.00;100267.22;6247006;28;20042;-75
2021/12/29 10:24:27;;;;;;;8.10;3.22;;;;;;;6.00;100.00;100264.25;6236798;28;20421;-75
2021/12/29 10:27:32;;;;;;;5.25;2.38;;;;;;;5.96;100.00;100265.31;6234150;28;20053;-75
2021/12/29 10:30:33;;;;;;;7.53;2.90;;;;;;;6.00;100.00;100269.47;6234789;28;20049;-75
2021/12/29 10:33:38;;;;;;;6.38;3.42;;;;;;;6.00;100.00;100284.28;6241451;28;20049;-75
2021/12/29 10:36:44;;;;;;;9.25;4.03;;;;;;;6.01;100.00;100286.81;6243868;28;20523;-75
2021/12/29 10:39:49;;;;;;;9.05;4.20;;;;;;;6.03;100.00;100282.38;6243729;28;20436;-75
2021/12/29 10:42:55;;;;;;;12.25;4.07;;;;;;;6.08;100.00;100301.28;6249946;28;20062;-75
2021/12/29 10:45:57;;;;;;;8.88;3.85;;;;;;;6.08;100.00;100301.28;6248262;28;20052;-75
2021/12/29 10:49:00;;;;;;;9.13;3.03;;;;;;;6.12;100.00;100304.63;6249930;28;20046;-76
2021/12/29 10:52:01;;;;;;;9.93;4.15;;;;;;;6.08;100.00;100316.09;6242113;28;20053;-75
2021/12/29 10:55:07;;;;;;;5.18;3.03;;;;;;;6.11;100.00;100305.53;6225528;28;20046;-75
2021/12/29 10:58:13;;;;;;;7.38;3.05;;;;;;;6.12;100.00;100301.16;6227019;28;20065;-75
2021/12/29 11:01:16;;;;;;;11.88;4.85;;;;;;;6.17;100.00;100296.59;6232528;28;20522;-76
2021/12/29 11:04:20;;;;;;;7.78;2.90;;;;;;;6.20;100.00;100289.50;6236948;28;20071;-75
2021/12/29 11:07:25;;;;;;;10.05;3.53;;;;;;;6.21;100.00;100279.91;6237540;28;20053;-76
2021/12/29 11:10:26;;;;;;;7.85;3.58;;;;;;;6.26;100.00;100275.34;6237937;28;20054;-76
2021/12/29 11:13:31;;;;;;;12.02;4.03;;;;;;;6.25;100.00;100264.06;6240656;28;20520;-76
2021/12/29 11:16:32;;;;;;;5.57;3.30;;;;;;;6.31;100.00;100274.25;6233402;28;20069;-76
2021/12/29 11:19:35;;;;;;;9.70;3.40;;;;;;;6.37;100.00;100275.72;6230810;28;20046;-75
2021/12/29 11:22:41;;;;;;;9.40;3.83;;;;;;;6.41;100.00;100285.13;6239079;28;20042;-75
2021/12/29 11:25:45;;;;;;;8.05;2.88;;;;;;;6.41;100.00;100277.28;6249098;28;20053;-74
2021/12/29 11:28:47;;;;;;;7.90;3.13;;;;;;;6.38;100.00;100277.41;6248994;28;20045;-76
2021/12/29 11:32:01;;;;;;;10.40;3.70;;;;;;;6.43;100.00;100282.44;6249054;28;20052;-74
2021/12/29 11:35:08;;;;;;;9.85;3.22;;;;;;;6.43;100.00;100290.25;6236714;28;20054;-75
2021/12/29 11:38:11;;;;;;;14.65;4.05;;;;;;;6.46;100.00;100291.00;6239141;28;20049;-76
2021/12/29 11:41:17;;;;;;;11.25;3.33;;;;;;;6.52;100.00;100295.94;6248688;28;20053;-75
2021/12/29 11:44:20;;;;;;;7.10;2.63;;;;;;;6.49;100.00;100303.88;6238476;28;20386;-76
2021/12/29 11:47:21;;;;;;;7.93;3.35;;;;;;;6.52;100.00;100308.13;6242657;28;20045;-76
2021/12/29 11:50:27;;;;;;;9.10;3.33;;;;;;;6.48;100.00;100312.63;6248145;28;20508;-73
2021/12/29 11:53:34;;;;;;;8.82;3.83;;;;;;;6.49;100.00;100316.09;6248525;28;20045;-75
2021/12/29 11:56:41;;;;;;;8.68;3.63;;;;;;;6.50;100.00;100321.28;6248403;28;20049;-75
2021/12/29 11:59:45;;;;;;;9.18;3.67;;;;;;;6.48;100.00;100309.19;6248295;28;20057;-71
2021/12/29 12:02:49;;;;;;;12.02;4.70;;;;;;;6.48;100.00;100317.00;6248491;28;20521;-74
2021/12/29 12:05:50;;;;;;;15.77;4.95;;;;;;;6.48;100.00;100317.84;6248002;28;20127;-74
2021/12/29 12:09:08;;;;;;;10.52;3.90;;;;;;;6.44;100.00;100318.91;6240102;28;20061;-74
2021/12/29 12:12:10;;;;;;;11.75;3.85;;;;;;;6.45;100.00;100318.00;6238028;28;20041;-73
2021/12/29 12:15:14;;;;;;;11.25;3.72;;;;;;;6.50;100.00;100328.25;6239253;28;20175;-74
2021/12/29 12:18:15;;;;;;;14.25;3.95;;;;;;;6.51;100.00;100330.78;6241460;28;20045;-75
2021/12/29 12:21:23;;;;;;;11.23;4.82;;;;;;;6.54;100.00;100328.06;6245972;28;20052;-74
2021/12/29 12:24:24;;;;;;;12.35;3.78;;;;;;;6.56;100.00;100341.03;6238168;28;20389;-74
2021/12/29 12:27:29;;;;;;;12.40;5.38;;;;;;;6.53;100.00;100341.16;6230178;28;20049;-74
2021/12/29 12:30:41;;;;;;;17.08;5.15;;;;;;;6.58;100.00;100345.25;6243815;28;20045;-75
2021/12/29 12:33:43;;;;;;;13.55;5.00;;;;;;;6.60;100.00;100355.66;6241451;28;20539;-75
2021/12/29 12:36:44;;;;;;;11.10;4.53;;;;;;;6.61;100.00;100363.41;6233520;28;20049;-75
2021/12/29 12:39:53;;;;;;;10.75;4.00;;;;;;;6.58;100.00;100362.69;6237909;28;20075;-75
2021/12/29 12:43:01;;;;;;;10.98;4.43;;;;;;;6.62;100.00;100364.25;6231520;28;20049;-74
2021/12/29 12:46:04;;;;;;;12.27;4.50;;;;;;;6.62;100.00;100372.09;6247160;28;20041;-75
2021/12/29 12:49:13;;;;;;;12.85;4.70;;;;;;;6.63;100.00;100372.94;6247412;28;20050;-75
2021/12/29 12:52:16;;;;;;;9.40;4.22;;;;;;;6.61;100.00;100368.63;6243694;28;20417;-75
2021/12/29 12:55:18;;;;;;;8.45;2.90;;;;;;;6.66;100.00;100364.97;6222998;28;20516;-75
2021/12/29 12:58:22;;;;;;;18.75;3.85;;;;;;;6.63;100.00;100375.53;6224138;28;20501;-75
2021/12/29 13:01:26;;;;;;;16.88;3.25;;;;;;;6.61;100.00;100380.84;6233250;28;20050;-74
2021/12/29 13:04:28;;;;;;;12.40;3.05;;;;;;;6.58;100.00;100373.13;6238412;28;20056;-75
2021/12/29 13:07:30;;;;;;;6.03;2.88;;;;;;;6.60;100.00;100371.31;6239098;28;20049;-73
2021/12/29 13:10:35;;;;;;;6.05;3.05;;;;;;;6.57;100.00;100372.28;6232293;28;20045;-74
2021/12/29 13:13:38;;;;;;;11.15;3.50;;;;;;;6.58;100.00;100357.47;6236962;28;20246;-75
2021/12/29 13:16:41;;;;;;;8.50;2.80;;;;;;;6.60;100.00;100363.47;6234992;28;20053;-74
2021/12/29 13:19:47;;;;;;;6.63;2.47;;;;;;;6.58;100.00;100363.53;6241908;28;20428;-74
2021/12/29 13:22:50;;;;;;;8.32;2.45;;;;;;;6.60;100.00;100372.16;6234987;28;20049;-74
2021/12/29 13:25:55;;;;;;;5.80;3.13;;;;;;;6.63;100.00;100368.56;6238293;28;20512;-76
2021/12/29 13:29:00;;;;;;;5.43;2.85;;;;;;;6.63;100.00;100371.16;6244976;28;20116;-76
2021/12/29 13:32:04;;;;;;;5.78;2.50;;;;;;;6.61;100.00;100366.00;6234887;28;20505;-76
2021/12/29 13:35:08;;;;;;;5.40;3.03;;;;;;;6.64;100.00;100372.03;6239930;28;20049;-76
2021/12/29 13:38:10;;;;;;;7.30;3.13;;;;;;;6.64;100.00;100367.66;6244844;28;20057;-76
2021/12/29 13:41:16;;;;;;;6.38;3.42;;;;;;;6.65;100.00;100378.94;6238810;28;20045;-75
2021/12/29 13:44:25;;;;;;;7.75;3.15;;;;;;;6.65;100.00;100373.72;6240845;28;20059;-75
2021/12/29 13:47:28;;;;;;;5.40;2.47;;;;;;;6.64;100.00;100380.72;6243671;28;20060;-75
2021/12/29 13:50:29;;;;;;;4.43;2.45;;;;;;;6.67;100.00;100384.94;6250713;28;20523;-75
2021/12/29 13:53:32;;;;;;;5.07;2.63;;;;;;;6.69;100.00;100386.59;6248536;28;20053;-75
2021/12/29 13:56:35;;;;;;;7.72;2.72;;;;;;;6.71;100.00;100381.28;6248036;28;20049;-75
2021/12/29 13:59:37;;;;;;;6.57;2.72;;;;;;;6.74;100.00;100362.88;6251259;28;20057;-76
2021/12/29 14:02:39;;;;;;;6.63;3.05;;;;;;;6.76;100.00;100369.72;6249106;28;20045;-76
2021/12/29 14:05:44;;;;;;;6.40;2.90;;;;;;;6.76;100.00;100377.56;6244918;28;20045;-75
2021/12/29 14:08:46;;;;;;;7.78;3.20;;;;;;;6.79;100.00;100385.25;6245502;28;20127;-78
2021/12/29 14:11:48;;;;;;;6.05;2.40;;;;;;;6.81;100.00;100378.22;6243096;28;20049;-76
2021/12/29 14:15:00;;;;;;;3.95;2.10;;;;;;;6.82;100.00;100377.31;6243482;28;20056;-74
2021/12/29 14:18:16;;;;;;;4.22;2.55;;;;;;;6.75;100.00;100381.09;6226731;28;20130;-76